< < Back
Terminal Aerodrome Forecast


Current Version              Previous Versions:   1  2  3  4  5  6  7  8  9  

Terminal Aerodrome Forecast

597
FTUS42 KTAE 051738
TAFTLH
TAF
KTLH 051738Z 0518/0618 31016G24KT P6SM FEW050
     FM060000 30003KT P6SM SKC
     FM061500 33010KT P6SM SKC=

Latest METAR

407
SAUS80 KWBC 052200 RRA
MTRTLH
METAR KTLH 052153Z 30017KT 10SM FEW010 FEW070 SCT250 24/00 A2977 RMK AO2
SLP081 FU FEW010 T02440000


USA.gov is the U.S. government's official web portal to all federal, state and local government web resources and services.